Time;durP1;ratioP1;P1;durP2;ratioP2;P2;SDS_P1;SDS_P2;PMS_P1;PMS_P2;Temp;Humidity;BMP_temperature;BMP_pressure;BME280_temperature;BME280_humidity;BME280_pressure;Samples;Min_cycle;Max_cycle;Signal;HPM_P1;HPM_P2
2022/09/24 00:01:33;;;;;;;1.58;1.00;;;;;;;10.11;100.00;98112.50;15333513;19;20015;-79
2022/09/24 00:07:05;;;;;;;1.35;1.00;;;;;;;10.09;100.00;98118.03;15301625;19;20027;-81
2022/09/24 00:12:33;;;;;;;1.67;1.00;;;;;;;10.07;100.00;98113.84;15308731;19;20011;-81
2022/09/24 00:17:58;;;;;;;1.80;1.10;;;;;;;10.04;100.00;98115.03;15310728;19;20485;-80
2022/09/24 00:23:23;;;;;;;2.60;1.10;;;;;;;10.02;100.00;98115.16;15345111;19;20011;-80
2022/09/24 00:28:50;;;;;;;1.65;1.10;;;;;;;9.98;100.00;98113.84;15332851;19;20034;-80
2022/09/24 00:34:15;;;;;;;1.02;1.00;;;;;;;9.94;100.00;98115.16;15297719;19;20388;-80
2022/09/24 00:39:39;;;;;;;2.40;1.17;;;;;;;9.86;100.00;98115.97;15300320;19;20014;-81
2022/09/24 00:45:10;;;;;;;1.33;1.23;;;;;;;9.79;100.00;98104.19;15295630;19;20034;-81
2022/09/24 00:50:39;;;;;;;3.60;1.10;;;;;;;9.72;100.00;98108.53;15310581;19;20037;-80
2022/09/24 00:56:06;;;;;;;3.15;1.30;;;;;;;9.67;100.00;98108.19;15313734;19;20583;-80
2022/09/24 01:01:35;;;;;;;1.20;1.10;;;;;;;9.56;100.00;98101.25;15316865;19;20014;-80
2022/09/24 01:07:01;;;;;;;2.05;1.02;;;;;;;9.50;100.00;98101.94;15308152;19;20022;-79
2022/09/24 01:12:36;;;;;;;2.20;1.20;;;;;;;9.45;100.00;98099.72;15308897;19;20045;-79
2022/09/24 01:18:11;;;;;;;2.13;1.10;;;;;;;9.42;100.00;98100.03;15303192;19;20041;-80
2022/09/24 01:24:00;;;;;;;1.45;1.20;;;;;;;9.36;100.00;98090.78;15301890;19;20017;-80
2022/09/24 01:29:40;;;;;;;1.48;1.10;;;;;;;9.31;100.00;98086.88;14540278;19;10000198;-80
2022/09/24 01:35:09;;;;;;;1.80;1.30;;;;;;;9.22;100.00;98086.88;15302026;19;20010;-80
2022/09/24 01:40:35;;;;;;;1.58;1.20;;;;;;;9.18;100.00;98081.94;15310205;19;20035;-80
2022/09/24 01:46:05;;;;;;;1.25;1.15;;;;;;;9.11;100.00;98079.09;15317248;19;20015;-80
2022/09/24 01:51:36;;;;;;;2.57;1.40;;;;;;;9.03;100.00;98071.81;15346885;19;20022;-79
2022/09/24 01:57:05;;;;;;;1.30;1.20;;;;;;;8.97;100.00;98079.66;15296238;19;20411;-81
2022/09/24 02:02:39;;;;;;;2.28;1.40;;;;;;;8.92;100.00;98066.72;15299528;19;20014;-83
2022/09/24 02:08:16;;;;;;;1.45;1.35;;;;;;;8.85;100.00;98069.19;15296762;19;20406;-80
2022/09/24 02:13:45;;;;;;;1.50;1.40;;;;;;;8.82;100.00;98069.50;15292677;19;20014;-79
2022/09/24 02:19:16;;;;;;;1.40;1.30;;;;;;;8.77;100.00;98075.34;15305428;19;20022;-82
2022/09/24 02:24:48;;;;;;;1.40;1.30;;;;;;;8.72;100.00;98064.22;15290258;19;20518;-79
2022/09/24 02:30:14;;;;;;;2.03;1.70;;;;;;;8.66;100.00;98072.94;15299706;19;20078;-80
2022/09/24 02:35:42;;;;;;;1.65;1.42;;;;;;;8.58;100.00;98064.84;15317942;19;20022;-80
2022/09/24 02:41:07;;;;;;;1.60;1.50;;;;;;;8.52;100.00;98060.06;15304536;19;20018;-79
2022/09/24 02:46:32;;;;;;;2.00;1.40;;;;;;;8.47;100.00;98052.47;15289595;19;20011;-80
2022/09/24 02:52:01;;;;;;;1.60;1.50;;;;;;;8.42;100.00;98054.75;15296990;19;20048;-78
2022/09/24 02:57:29;;;;;;;4.55;1.70;;;;;;;8.37;100.00;98046.34;15306960;19;20098;-78
2022/09/24 03:02:54;;;;;;;2.78;1.77;;;;;;;8.32;100.00;98042.28;15307357;19;20713;-79
2022/09/24 03:08:29;;;;;;;3.58;1.50;;;;;;;8.26;100.00;98040.25;15295425;19;20475;-79
2022/09/24 03:13:54;;;;;;;2.75;1.58;;;;;;;8.22;100.00;98032.66;15291353;19;20026;-80
2022/09/24 03:19:20;;;;;;;2.50;1.80;;;;;;;8.16;100.00;98036.81;15295914;19;20014;-80
2022/09/24 03:24:47;;;;;;;2.80;1.88;;;;;;;8.13;100.00;98029.06;15290021;19;20015;-79
2022/09/24 03:35:50;;;;;;;1.80;1.70;;;;;;;8.07;100.00;98005.53;15285031;19;20046;-78
2022/09/24 03:41:19;;;;;;;2.75;1.90;;;;;;;8.06;100.00;97999.34;15305174;19;20086;-79
2022/09/24 03:46:44;;;;;;;2.03;1.75;;;;;;;8.09;100.00;97998.16;15299574;19;20014;-82
2022/09/24 03:52:10;;;;;;;2.10;1.90;;;;;;;8.11;100.00;97998.88;15304154;19;20022;-79
2022/09/24 03:57:37;;;;;;;4.90;1.58;;;;;;;8.15;100.00;98005.63;15294197;19;20046;-78
2022/09/24 04:03:02;;;;;;;1.88;1.70;;;;;;;8.16;100.00;98005.44;15303076;19;20430;-78
2022/09/24 04:08:33;;;;;;;1.50;1.35;;;;;;;8.18;100.00;97999.91;15290287;19;20028;-78
2022/09/24 04:14:01;;;;;;;;;;;;;;;8.17;100.00;98007.13;15295020;19;20010;-78
2022/09/24 04:19:30;;;;;;;2.38;1.83;;;;;;;8.15;100.00;98000.25;15305471;19;19994;-80
2022/09/24 04:24:58;;;;;;;1.70;1.58;;;;;;;8.14;100.00;97990.50;15305791;19;20022;-78
2022/09/24 04:30:33;;;;;;;1.90;1.55;;;;;;;8.11;100.00;97994.34;15307269;19;20018;-79
2022/09/24 04:35:57;;;;;;;3.38;1.52;;;;;;;8.09;100.00;97996.34;15310112;19;20427;-78
2022/09/24 04:41:23;;;;;;;1.90;1.45;;;;;;;8.05;100.00;97999.50;15315255;19;20050;-79
2022/09/24 04:46:50;;;;;;;2.10;1.60;;;;;;;8.02;100.00;98001.50;15308798;19;20016;-80
2022/09/24 04:52:16;;;;;;;2.03;1.55;;;;;;;7.99;100.00;98009.84;15309188;19;20021;-78
2022/09/24 04:57:44;;;;;;;1.73;1.50;;;;;;;7.97;100.00;98014.50;15297982;19;20011;-80
2022/09/24 05:03:23;;;;;;;2.10;1.42;;;;;;;7.96;100.00;98015.50;15301892;19;20011;-78
2022/09/24 05:09:02;;;;;;;1.88;1.50;;;;;;;7.95;100.00;98010.31;15355120;19;20013;-82
2022/09/24 05:14:36;;;;;;;;;;;;;;;7.94;100.00;98025.53;15361249;19;20017;-83
2022/09/24 05:20:04;;;;;;;1.70;1.42;;;;;;;7.92;100.00;98022.19;15330215;19;19940;-81
2022/09/24 05:25:29;;;;;;;1.60;1.50;;;;;;;7.92;100.00;98019.50;15313896;19;20007;-81
2022/09/24 05:30:53;;;;;;;2.88;1.60;;;;;;;7.94;100.00;98020.19;15302893;19;20022;-79
2022/09/24 05:36:21;;;;;;;2.35;1.60;;;;;;;7.95;100.00;98010.31;15311004;19;20003;-79
2022/09/24 05:41:47;;;;;;;1.83;1.50;;;;;;;7.96;100.00;98023.56;15313143;19;20049;-80
2022/09/24 05:47:14;;;;;;;1.90;1.70;;;;;;;7.98;100.00;98021.56;15322727;19;20105;-80
2022/09/24 05:52:42;;;;;;;2.35;1.50;;;;;;;8.01;100.00;98023.94;15323075;19;20015;-81
2022/09/24 05:58:09;;;;;;;1.95;1.70;;;;;;;8.09;100.00;98023.19;15322729;19;20498;-82
2022/09/24 06:03:34;;;;;;;2.75;1.55;;;;;;;8.13;100.00;98026.38;15315772;19;20014;-80
2022/09/24 06:09:09;;;;;;;1.60;1.50;;;;;;;8.18;100.00;98026.75;15282489;19;20045;-79
2022/09/24 06:14:36;;;;;;;2.75;1.55;;;;;;;8.23;100.00;98021.75;15311313;19;20017;-79
2022/09/24 06:20:01;;;;;;;3.03;1.60;;;;;;;8.30;100.00;98025.50;15306886;19;20086;-81
2022/09/24 06:25:29;;;;;;;2.97;1.70;;;;;;;8.38;100.00;98015.84;15301476;19;20023;-80
2022/09/24 06:30:54;;;;;;;2.00;1.70;;;;;;;8.44;100.00;98018.72;15310889;19;20090;-81
2022/09/24 06:36:18;;;;;;;2.22;1.60;;;;;;;8.55;100.00;98023.00;15293449;19;20085;-79
2022/09/24 06:41:46;;;;;;;1.90;1.63;;;;;;;8.67;100.00;98041.53;15300865;19;20031;-80
2022/09/24 06:47:16;;;;;;;2.45;1.63;;;;;;;8.79;100.00;98016.09;15294321;19;20011;-80
2022/09/24 06:52:41;;;;;;;1.85;1.50;;;;;;;8.96;100.00;98019.72;15298579;19;20018;-79
2022/09/24 06:58:11;;;;;;;3.42;2.00;;;;;;;9.19;100.00;98014.59;15301229;19;20021;-80
2022/09/24 07:03:38;;;;;;;2.65;1.52;;;;;;;9.40;100.00;98013.31;15303519;19;20029;-83
2022/09/24 07:09:10;;;;;;;2.78;1.80;;;;;;;9.64;100.00;98017.06;15292319;19;20022;-80
2022/09/24 07:14:37;;;;;;;2.33;1.70;;;;;;;9.81;100.00;98018.78;15304377;19;20038;-78
2022/09/24 07:20:13;;;;;;;1.83;1.60;;;;;;;9.99;100.00;98017.78;15309240;19;20533;-79
2022/09/24 07:25:40;;;;;;;2.55;1.90;;;;;;;10.14;100.00;98018.81;15314536;19;20034;-80
2022/09/24 07:31:08;;;;;;;2.13;1.60;;;;;;;10.29;100.00;98031.59;15327158;19;20031;-81
2022/09/24 07:36:34;;;;;;;3.15;1.63;;;;;;;10.39;100.00;98034.97;15336505;19;20018;-79
2022/09/24 07:41:59;;;;;;;2.85;1.70;;;;;;;10.51;100.00;98037.31;15351205;19;20027;-80
2022/09/24 07:47:27;;;;;;;3.53;1.60;;;;;;;10.54;100.00;98042.34;15347831;19;20038;-81
2022/09/24 07:52:58;;;;;;;2.53;1.77;;;;;;;10.53;100.00;98048.75;15344702;19;20026;-79
2022/09/24 07:58:22;;;;;;;3.03;1.38;;;;;;;10.64;100.00;98053.81;15346958;19;20011;-79
2022/09/24 08:03:50;;;;;;;1.65;1.35;;;;;;;10.75;100.00;98053.44;15336476;19;20077;-79
2022/09/24 08:09:23;;;;;;;2.00;1.40;;;;;;;10.93;100.00;98044.28;15343491;19;20018;-79
2022/09/24 08:14:49;;;;;;;3.45;1.60;;;;;;;11.13;100.00;98038.50;15338135;19;20003;-79
2022/09/24 08:20:18;;;;;;;2.00;1.50;;;;;;;11.29;100.00;98030.34;15351593;19;20122;-79
2022/09/24 08:25:42;;;;;;;2.95;1.27;;;;;;;11.50;100.00;98020.78;15344219;19;20010;-79
2022/09/24 08:31:09;;;;;;;1.60;1.30;;;;;;;11.68;100.00;98024.09;15361041;19;20013;-79
2022/09/24 08:36:37;;;;;;;2.15;1.30;;;;;;;11.84;100.00;98019.56;15355142;19;20014;-79
2022/09/24 08:42:06;;;;;;;1.75;1.42;;;;;;;12.08;100.00;98015.03;15351448;19;20013;-79
2022/09/24 08:47:42;;;;;;;2.33;1.48;;;;;;;12.35;100.00;98019.03;15344253;19;20022;-80
2022/09/24 08:53:21;;;;;;;1.92;1.20;;;;;;;12.57;100.00;98013.78;15082274;19;5001183;-80
2022/09/24 08:58:50;;;;;;;1.63;1.30;;;;;;;12.75;100.00;98019.66;15345462;19;20011;-80
2022/09/24 09:04:30;;;;;;;1.90;1.20;;;;;;;12.96;100.00;98015.38;15334341;19;20022;-81
2022/09/24 09:10:02;;;;;;;1.30;1.10;;;;;;;13.16;100.00;98006.72;15344793;19;20018;-80
2022/09/24 09:15:30;;;;;;;2.15;1.10;;;;;;;13.38;100.00;98016.56;15298082;19;20018;-80
2022/09/24 09:20:58;;;;;;;1.63;1.30;;;;;;;13.58;100.00;98015.16;15296204;19;20022;-80
2022/09/24 09:26:27;;;;;;;1.30;1.20;;;;;;;13.75;100.00;98011.16;15299235;19;20762;-81
2022/09/24 09:32:11;;;;;;;1.25;1.00;;;;;;;13.95;100.00;98010.53;15305947;19;20058;-80
2022/09/24 09:37:52;;;;;;;3.85;1.13;;;;;;;14.16;100.00;97999.72;15288253;19;20022;-80
2022/09/24 09:43:19;;;;;;;1.05;0.93;;;;;;;14.34;100.00;97990.25;15286243;19;20011;-81
2022/09/24 09:48:54;;;;;;;1.85;1.08;;;;;;;14.60;100.00;98003.16;15303710;19;20081;-79
2022/09/24 09:54:20;;;;;;;2.30;1.10;;;;;;;14.87;100.00;98014.22;15334557;19;20361;-80
2022/09/24 09:59:48;;;;;;;1.65;0.93;;;;;;;15.05;100.00;97999.31;15286328;19;20011;-80
2022/09/24 10:05:27;;;;;;;1.33;1.05;;;;;;;15.21;100.00;98003.56;15279078;19;20053;-80
2022/09/24 10:11:02;;;;;;;2.25;1.00;;;;;;;15.35;100.00;97999.03;15281897;19;20031;-81
2022/09/24 10:16:29;;;;;;;1.60;1.00;;;;;;;15.60;100.00;97998.50;15277398;19;20307;-80
2022/09/24 10:21:54;;;;;;;3.58;1.02;;;;;;;15.72;100.00;97997.69;15290751;19;20028;-81
2022/09/24 10:27:31;;;;;;;1.20;1.00;;;;;;;15.83;100.00;98004.41;15283393;19;20018;-80
2022/09/24 10:33:05;;;;;;;2.15;1.00;;;;;;;16.01;100.00;98003.00;15287991;19;20010;-81
2022/09/24 10:38:30;;;;;;;1.63;0.90;;;;;;;16.25;100.00;98008.88;15292326;19;20010;-80
2022/09/24 10:44:00;;;;;;;2.00;0.90;;;;;;;16.30;100.00;97996.31;15283221;19;20010;-81
2022/09/24 10:49:53;;;;;;;2.75;1.00;;;;;;;16.30;100.00;97996.31;15282126;19;20006;-81
2022/09/24 10:55:30;;;;;;;0.73;0.60;;;;;;;16.41;100.00;97989.44;15278961;19;20022;-81
2022/09/24 11:01:07;;;;;;;0.90;0.85;;;;;;;16.71;100.00;97985.44;15285701;19;20349;-81
2022/09/24 11:06:56;;;;;;;1.67;1.10;;;;;;;16.71;100.00;97975.38;15278510;19;20029;-81
2022/09/24 11:12:31;;;;;;;2.05;1.00;;;;;;;16.78;100.00;97975.34;15284943;19;20035;-81
2022/09/24 11:18:13;;;;;;;2.45;1.00;;;;;;;16.96;100.00;97977.44;15277212;19;20041;-81
2022/09/24 11:24:07;;;;;;;1.95;1.00;;;;;;;17.28;100.00;97971.28;15276229;19;20036;-81
2022/09/24 11:29:54;;;;;;;1.95;0.93;;;;;;;17.34;100.00;97971.25;15279078;19;20041;-80
2022/09/24 11:35:46;;;;;;;1.58;1.10;;;;;;;17.40;100.00;97954.03;15277199;19;20014;-81
2022/09/24 11:41:31;;;;;;;1.33;0.90;;;;;;;17.48;100.00;97963.00;15277724;19;20017;-81
2022/09/24 11:47:11;;;;;;;1.67;1.10;;;;;;;17.55;100.00;97952.91;15282852;19;20037;-81
2022/09/24 11:52:45;;;;;;;1.40;0.70;;;;;;;17.72;100.00;97958.69;15276236;19;20381;-81
2022/09/24 11:58:18;;;;;;;1.35;0.90;;;;;;;17.89;100.00;97948.09;15310895;19;20040;-80
2022/09/24 12:03:41;;;;;;;1.63;0.90;;;;;;;17.86;100.00;97948.56;15298645;19;20021;-81
2022/09/24 12:09:10;;;;;;;1.10;0.80;;;;;;;17.93;100.00;97934.88;15293527;19;20041;-80
2022/09/24 12:14:49;;;;;;;1.30;0.70;;;;;;;18.21;100.00;97925.44;15294295;19;20010;-81
2022/09/24 12:20:35;;;;;;;1.45;0.80;;;;;;;18.36;100.00;97925.94;15305572;19;20013;-80
2022/09/24 12:26:16;;;;;;;1.30;0.80;;;;;;;18.59;99.74;97927.19;15351244;19;20003;-81
2022/09/24 12:37:37;;;;;;;1.40;0.80;;;;;;;19.16;100.00;97920.69;15291611;19;20082;-81
2022/09/24 12:43:06;;;;;;;2.38;0.82;;;;;;;19.27;100.00;97925.38;15284726;19;20336;-80
2022/09/24 12:48:39;;;;;;;2.40;0.93;;;;;;;19.36;85.18;97915.81;15285476;19;20020;-80
2022/09/24 12:54:07;;;;;;;1.48;0.90;;;;;;;19.27;91.37;97919.09;15294570;19;20036;-80
2022/09/24 12:59:31;;;;;;;1.38;0.80;;;;;;;19.02;96.21;97918.13;15283709;19;20095;-80
2022/09/24 13:05:22;;;;;;;5.25;0.98;;;;;;;18.72;87.59;97907.97;15276719;19;20475;-80
2022/09/24 13:10:57;;;;;;;3.55;1.00;;;;;;;18.52;87.79;97901.88;15291902;19;20442;-80
2022/09/24 13:16:26;;;;;;;3.33;0.90;;;;;;;18.81;92.68;97899.47;15294326;19;20018;-81
2022/09/24 13:22:00;;;;;;;4.35;0.85;;;;;;;18.95;88.49;97895.56;15296458;19;20018;-82
2022/09/24 13:27:42;;;;;;;1.83;0.80;;;;;;;18.82;89.73;97892.94;15300362;19;20026;-83
2022/09/24 13:33:22;;;;;;;1.13;0.70;;;;;;;18.63;87.99;97907.41;15305618;19;20102;-80
2022/09/24 13:39:01;;;;;;;1.95;0.82;;;;;;;18.94;92.86;97891.97;15305535;19;20076;-80
2022/09/24 13:44:30;;;;;;;5.07;0.90;;;;;;;18.94;89.67;97893.88;15304564;19;20023;-79
2022/09/24 13:49:59;;;;;;;1.85;0.90;;;;;;;18.94;89.48;97896.63;15298459;19;20015;-79
2022/09/24 13:55:32;;;;;;;3.25;0.95;;;;;;;19.23;77.76;97897.72;15295106;19;20011;-79
2022/09/24 14:00:59;;;;;;;1.83;0.90;;;;;;;19.58;82.59;97889.88;15294440;19;20021;-79
2022/09/24 14:06:36;;;;;;;2.08;0.75;;;;;;;19.52;75.57;97891.66;15294319;19;20018;-79
2022/09/24 14:12:07;;;;;;;2.88;0.75;;;;;;;19.78;77.69;97876.75;15295734;19;20033;-79
2022/09/24 14:17:32;;;;;;;1.10;0.75;;;;;;;19.80;73.09;97874.59;15296723;19;20130;-79
2022/09/24 14:22:56;;;;;;;1.17;0.77;;;;;;;19.69;72.89;97884.47;15305349;19;20069;-79
2022/09/24 14:28:31;;;;;;;0.82;0.63;;;;;;;19.79;77.46;97888.53;15302506;19;20029;-79
2022/09/24 14:33:55;;;;;;;0.93;0.63;;;;;;;19.58;79.23;97882.50;15308689;19;20010;-79
2022/09/24 14:39:20;;;;;;;2.20;0.70;;;;;;;20.02;70.09;97871.34;15315991;19;20014;-79
2022/09/24 14:44:50;;;;;;;2.58;0.60;;;;;;;19.73;67.78;97873.03;15341632;19;20023;-80
2022/09/24 14:50:31;;;;;;;1.85;0.70;;;;;;;19.45;72.73;97882.72;15315874;19;20011;-79
2022/09/24 14:55:56;;;;;;;1.85;0.75;;;;;;;19.17;73.64;97878.69;15310966;19;20011;-80
2022/09/24 15:01:31;;;;;;;1.50;0.70;;;;;;;19.05;74.05;97889.56;15316812;19;20015;-80
2022/09/24 15:06:56;;;;;;;0.95;0.52;;;;;;;18.93;80.23;97884.00;15307762;19;20098;-79
2022/09/24 15:12:29;;;;;;;1.05;0.60;;;;;;;19.01;77.34;97880.97;15305693;19;20014;-79
2022/09/24 15:17:57;;;;;;;0.93;0.68;;;;;;;18.96;78.26;97880.84;15301026;19;20025;-80
2022/09/24 15:23:22;;;;;;;0.95;0.73;;;;;;;18.87;73.58;97872.09;15269182;19;20782;-78
2022/09/24 15:28:46;;;;;;;0.90;0.60;;;;;;;18.75;79.76;97880.22;15309302;19;20055;-79
2022/09/24 15:34:14;;;;;;;0.80;0.55;;;;;;;18.63;83.72;97876.59;15318715;19;20043;-78
2022/09/24 15:39:40;;;;;;;0.75;0.52;;;;;;;18.61;99.78;97881.44;15318972;19;20018;-79
2022/09/24 15:45:16;;;;;;;1.13;0.73;;;;;;;18.57;93.96;97877.47;15292985;19;20015;-80
2022/09/24 15:50:40;;;;;;;1.25;0.80;;;;;;;18.55;100.00;97874.13;15313126;19;20046;-79
2022/09/24 15:56:07;;;;;;;0.93;0.73;;;;;;;18.43;100.00;97877.63;15301745;19;20039;-80
2022/09/24 16:01:32;;;;;;;1.38;0.73;;;;;;;18.31;100.00;97874.81;15302601;19;20384;-80
2022/09/24 16:06:59;;;;;;;2.95;1.10;;;;;;;18.17;100.00;97874.09;15303571;19;20039;-82
2022/09/24 16:12:26;;;;;;;1.63;1.20;;;;;;;18.08;100.00;97871.88;15312949;19;20035;-78
2022/09/24 16:17:52;;;;;;;1.70;1.35;;;;;;;18.01;100.00;97874.66;15298698;19;20014;-84
2022/09/24 16:23:19;;;;;;;2.03;0.90;;;;;;;17.98;100.00;97878.69;15303235;19;20803;-80
2022/09/24 16:28:51;;;;;;;3.53;1.30;;;;;;;17.90;100.00;97878.09;15311763;19;20367;-80
2022/09/24 16:34:16;;;;;;;3.97;1.75;;;;;;;17.81;100.00;97878.38;15349236;19;20044;-82
2022/09/24 16:39:43;;;;;;;2.03;1.52;;;;;;;17.69;100.00;97880.13;15321752;19;20045;-80
2022/09/24 16:45:11;;;;;;;2.95;1.30;;;;;;;17.53;100.00;97878.75;15281957;19;20014;-79
2022/09/24 16:50:36;;;;;;;5.70;1.38;;;;;;;17.40;100.00;97887.84;15284533;19;20011;-82
2022/09/24 16:56:09;;;;;;;1.30;1.20;;;;;;;17.21;100.00;97887.75;15290140;19;20085;-81
2022/09/24 17:01:33;;;;;;;2.92;1.20;;;;;;;17.05;100.00;97886.34;15297597;19;20018;-82
2022/09/24 17:07:00;;;;;;;2.72;1.30;;;;;;;16.89;100.00;97894.97;15293990;19;20373;-80
2022/09/24 17:12:27;;;;;;;2.60;1.20;;;;;;;16.76;100.00;97901.28;15292879;19;20025;-82
2022/09/24 17:17:52;;;;;;;3.55;1.20;;;;;;;16.64;100.00;97909.28;15292347;19;20017;-80
2022/09/24 17:23:16;;;;;;;1.95;1.30;;;;;;;16.52;100.00;97908.25;15297153;19;20025;-81
2022/09/24 17:28:45;;;;;;;1.33;1.20;;;;;;;16.43;100.00;97913.09;15293207;19;20020;-83
2022/09/24 17:34:14;;;;;;;3.33;1.30;;;;;;;16.34;100.00;97904.34;15299931;19;20035;-80
2022/09/24 17:39:39;;;;;;;5.45;1.48;;;;;;;16.28;100.00;97916.03;15298428;19;20094;-81
2022/09/24 17:45:06;;;;;;;2.67;1.30;;;;;;;16.22;100.00;97917.72;15292033;19;20015;-80
2022/09/24 17:50:32;;;;;;;3.13;1.38;;;;;;;16.19;100.00;97918.13;15294173;19;20010;-81
2022/09/24 17:55:57;;;;;;;2.08;1.30;;;;;;;16.06;100.00;97923.56;15289040;19;20034;-78
2022/09/24 18:01:27;;;;;;;2.78;1.25;;;;;;;15.96;100.00;97929.44;15292232;19;20398;-81
2022/09/24 18:06:53;;;;;;;2.85;1.40;;;;;;;15.79;100.00;97935.22;15291714;19;20018;-80
2022/09/24 18:12:18;;;;;;;2.47;1.42;;;;;;;15.60;100.00;97938.75;15292360;19;20031;-81
2022/09/24 18:17:45;;;;;;;5.57;1.75;;;;;;;15.51;100.00;97938.09;15290361;19;20017;-80
2022/09/24 18:23:10;;;;;;;3.92;1.60;;;;;;;15.42;100.00;97940.16;15290134;19;20085;-82
2022/09/24 18:28:34;;;;;;;5.30;1.35;;;;;;;15.34;100.00;97934.91;15301244;19;20046;-80
2022/09/24 18:34:06;;;;;;;3.75;1.70;;;;;;;15.19;100.00;97930.47;15297036;19;20021;-80
2022/09/24 18:39:32;;;;;;;2.47;1.80;;;;;;;15.10;100.00;97938.00;14780387;19;10000879;-81
2022/09/24 18:44:57;;;;;;;4.78;1.60;;;;;;;15.05;100.00;97939.63;15292727;19;20174;-79
2022/09/24 18:50:25;;;;;;;4.38;1.60;;;;;;;14.96;100.00;97936.25;15297339;19;20022;-80
2022/09/24 18:55:56;;;;;;;5.97;1.80;;;;;;;14.85;100.00;97940.34;15289262;19;20023;-81
2022/09/24 19:01:23;;;;;;;3.78;1.60;;;;;;;14.76;100.00;97942.38;15291260;19;20011;-79
2022/09/24 19:06:58;;;;;;;3.40;1.77;;;;;;;14.71;100.00;97938.59;15304952;19;20326;-79
2022/09/24 19:12:24;;;;;;;2.85;1.60;;;;;;;14.64;100.00;97935.84;15314333;19;20015;-81
2022/09/24 19:17:51;;;;;;;3.72;1.83;;;;;;;14.56;100.00;97936.00;15310261;19;20014;-81
2022/09/24 19:23:19;;;;;;;2.22;1.77;;;;;;;14.49;100.00;97939.50;15310698;19;20007;-81
2022/09/24 19:28:49;;;;;;;2.08;1.40;;;;;;;14.43;100.00;97947.59;15308006;19;20015;-82
2022/09/24 19:34:15;;;;;;;3.30;1.60;;;;;;;14.41;100.00;97955.91;15303789;19;20313;-83
2022/09/24 19:39:50;;;;;;;3.35;1.65;;;;;;;14.28;100.00;97953.13;15325385;19;20014;-82
2022/09/24 19:45:16;;;;;;;6.20;2.13;;;;;;;14.18;100.00;97956.16;15363295;19;20642;-80
2022/09/24 19:50:40;;;;;;;4.57;1.85;;;;;;;14.03;100.00;97953.53;15313308;19;20085;-80
2022/09/24 19:56:09;;;;;;;8.18;2.05;;;;;;;13.98;100.00;97950.56;15295434;19;20018;-80
2022/09/24 20:01:36;;;;;;;3.88;1.60;;;;;;;13.75;100.00;97962.44;15300865;19;20019;-81
2022/09/24 20:07:01;;;;;;;3.30;1.70;;;;;;;13.54;100.00;97961.41;15302349;19;20030;-80
2022/09/24 20:12:28;;;;;;;4.40;1.58;;;;;;;13.55;100.00;97954.97;15292669;19;20014;-80
2022/09/24 20:17:53;;;;;;;2.03;1.60;;;;;;;13.54;100.00;97964.09;15302812;19;20029;-80
2022/09/24 20:23:25;;;;;;;3.15;1.80;;;;;;;13.46;100.00;97957.97;15307093;19;20018;-81
2022/09/24 20:28:52;;;;;;;4.53;2.00;;;;;;;13.32;100.00;97951.56;15359114;19;20015;-81
2022/09/24 20:34:17;;;;;;;5.53;2.40;;;;;;;13.10;100.00;97965.03;15284867;19;20140;-80
2022/09/24 20:39:42;;;;;;;3.40;2.47;;;;;;;12.91;100.00;97972.69;15292839;19;20027;-77
2022/09/24 20:45:09;;;;;;;3.08;2.25;;;;;;;12.83;100.00;97974.63;15286898;19;20028;-76
2022/09/24 20:50:35;;;;;;;3.85;1.98;;;;;;;12.73;100.00;97985.75;15290684;19;20011;-77
2022/09/24 20:56:01;;;;;;;5.60;2.10;;;;;;;12.66;100.00;97982.09;15282596;19;20025;-77
2022/09/24 21:01:28;;;;;;;4.45;2.08;;;;;;;12.61;100.00;97988.06;15284133;19;20034;-76
2022/09/24 21:06:53;;;;;;;2.55;2.20;;;;;;;12.47;100.00;97984.31;15281286;19;20025;-77
2022/09/24 21:12:19;;;;;;;4.05;2.50;;;;;;;12.34;100.00;97984.97;15282278;19;20029;-78
2022/09/24 21:17:46;;;;;;;3.08;2.30;;;;;;;12.28;100.00;97988.38;15276122;19;20017;-77
2022/09/24 21:23:31;;;;;;;3.65;2.53;;;;;;;12.24;100.00;97987.06;15279468;19;20018;-77
2022/09/24 21:28:57;;;;;;;4.70;2.70;;;;;;;12.09;100.00;97992.41;15277042;19;20010;-78
2022/09/24 21:34:25;;;;;;;4.40;2.58;;;;;;;11.97;100.00;97981.19;15281616;19;20038;-78
2022/09/24 21:39:50;;;;;;;4.00;2.88;;;;;;;11.88;100.00;97988.50;15277129;19;20502;-77
2022/09/24 21:45:15;;;;;;;4.00;2.75;;;;;;;11.83;100.00;97991.75;15274035;19;20443;-78
2022/09/24 21:50:42;;;;;;;3.00;2.70;;;;;;;11.79;100.00;97986.91;15274059;19;20011;-79
2022/09/24 21:56:08;;;;;;;3.08;2.65;;;;;;;11.74;100.00;97994.69;15274810;19;20031;-79
2022/09/24 22:01:35;;;;;;;3.88;2.88;;;;;;;11.64;100.00;98003.84;15277173;19;20018;-78
2022/09/24 22:07:09;;;;;;;3.63;2.97;;;;;;;11.60;100.00;97997.13;15273312;19;20077;-78
2022/09/24 22:12:36;;;;;;;3.55;2.67;;;;;;;11.59;100.00;98000.00;15270516;19;20006;-76
2022/09/24 22:18:00;;;;;;;4.00;2.88;;;;;;;11.44;100.00;97997.25;15278604;19;20015;-78
2022/09/24 22:23:27;;;;;;;2.83;2.63;;;;;;;11.40;100.00;98002.97;15274763;19;20543;-78
2022/09/24 22:28:51;;;;;;;4.03;2.75;;;;;;;11.31;100.00;97993.25;15279760;19;20026;-79
2022/09/24 22:39:56;;;;;;;5.25;3.25;;;;;;;11.21;100.00;97989.94;15265105;19;20011;-77
2022/09/24 22:45:21;;;;;;;4.80;3.00;;;;;;;11.13;100.00;98000.75;15274047;19;20007;-77
2022/09/24 22:50:45;;;;;;;3.80;3.22;;;;;;;10.97;100.00;97997.13;15283528;19;20015;-77
2022/09/24 22:56:14;;;;;;;3.90;3.25;;;;;;;10.85;100.00;98012.00;15279674;19;20082;-77
2022/09/24 23:01:40;;;;;;;3.83;3.47;;;;;;;10.74;100.00;97999.72;15278441;19;20049;-77
2022/09/24 23:07:05;;;;;;;6.63;3.70;;;;;;;10.76;100.00;98009.28;15277934;19;20396;-77
2022/09/24 23:12:32;;;;;;;3.40;2.90;;;;;;;10.75;100.00;98014.88;15280260;19;20024;-77
2022/09/24 23:17:57;;;;;;;4.50;3.20;;;;;;;10.73;100.00;98001.59;15278893;19;20046;-77
2022/09/24 23:23:21;;;;;;;5.80;3.60;;;;;;;10.70;100.00;97996.53;15282549;19;20026;-77
2022/09/24 23:28:51;;;;;;;3.53;3.05;;;;;;;10.71;100.00;97998.22;15285376;19;20037;-77
2022/09/24 23:34:15;;;;;;;3.42;3.13;;;;;;;10.69;100.00;97988.63;15284600;19;20018;-77
2022/09/24 23:39:41;;;;;;;3.65;3.30;;;;;;;10.64;100.00;97991.84;15283946;19;20010;-77
2022/09/24 23:45:08;;;;;;;4.43;3.28;;;;;;;10.59;100.00;97981.56;15279650;19;20038;-76
2022/09/24 23:50:33;;;;;;;4.97;3.40;;;;;;;10.57;100.00;97985.44;15274117;19;20371;-77
2022/09/24 23:55:59;;;;;;;4.18;3.70;;;;;;;10.56;100.00;97986.47;15297034;19;20026;-77
